createdAt,value
2023-05-13T00:01:38.623Z,10.55
2023-05-13T00:06:40.534Z,10.38
2023-05-13T00:11:42.264Z,10.25
2023-05-13T00:16:43.909Z,10.18
2023-05-13T00:21:45.661Z,10.04
2023-05-13T00:26:47.253Z,9.91
2023-05-13T00:31:48.754Z,9.77
2023-05-13T00:36:50.292Z,9.64
2023-05-13T00:41:51.809Z,9.50
2023-05-13T00:46:53.961Z,9.40
2023-05-13T00:51:55.724Z,9.34
2023-05-13T00:56:58.337Z,9.28
2023-05-13T01:02:10.824Z,9.23
2023-05-13T01:07:21.636Z,9.19
2023-05-13T01:12:39.847Z,9.17
2023-05-13T01:17:49.781Z,9.10
2023-05-13T01:22:51.396Z,9.09
2023-05-13T01:27:53.865Z,9.11
2023-05-13T01:32:56.463Z,9.07
2023-05-13T01:37:59.475Z,8.99
2023-05-13T01:43:01.672Z,8.87
2023-05-13T01:48:03.460Z,8.81
2023-05-13T01:53:05.140Z,8.80
2023-05-13T01:58:06.719Z,8.78
2023-05-13T02:03:08.273Z,8.82
2023-05-13T02:08:09.925Z,8.83
2023-05-13T02:13:12.257Z,8.81
2023-05-13T02:18:14.131Z,8.79
2023-05-13T02:23:15.905Z,8.74
2023-05-13T02:28:17.798Z,8.70
2023-05-13T02:33:19.445Z,8.63
2023-05-13T02:38:21.025Z,8.58
2023-05-13T02:43:24.792Z,8.50
2023-05-13T02:48:26.341Z,8.49
2023-05-13T02:53:28.254Z,8.48
2023-05-13T02:58:29.768Z,8.39
2023-05-13T03:03:31.460Z,8.38
2023-05-13T03:08:33.077Z,8.34
2023-05-13T03:13:34.711Z,8.35
2023-05-13T03:18:36.328Z,8.40
2023-05-13T03:23:37.860Z,8.57
2023-05-13T03:28:39.443Z,9.19
2023-05-13T03:33:40.996Z,10.18
2023-05-13T03:38:42.513Z,12.24
2023-05-13T03:43:44.443Z,13.23
2023-05-13T03:48:45.956Z,12.97
2023-05-13T03:53:47.896Z,11.91
2023-05-13T03:58:49.400Z,11.30
2023-05-13T04:03:54.505Z,10.84
2023-05-13T04:08:56.579Z,10.35
2023-05-13T04:14:01.491Z,10.16
2023-05-13T04:19:03.097Z,10.06
2023-05-13T04:24:06.345Z,9.95
2023-05-13T04:29:08.506Z,9.91
2023-05-13T04:34:10.073Z,9.98
2023-05-13T04:39:11.744Z,10.07
2023-05-13T04:44:13.285Z,10.36
2023-05-13T04:49:14.831Z,10.76
2023-05-13T04:54:16.938Z,10.92
2023-05-13T04:59:18.726Z,10.92
2023-05-13T05:04:20.415Z,10.88
2023-05-13T05:09:21.983Z,10.95
2023-05-13T05:14:23.548Z,11.05
2023-05-13T05:19:25.093Z,11.15
2023-05-13T05:24:26.711Z,11.19
2023-05-13T05:29:28.223Z,11.60
2023-05-13T05:34:29.733Z,12.30
2023-05-13T05:39:31.241Z,12.73
2023-05-13T05:44:32.785Z,12.97
2023-05-13T05:49:34.337Z,13.15
2023-05-13T05:54:35.973Z,13.28
2023-05-13T05:59:37.660Z,13.41
2023-05-13T06:04:39.450Z,13.49
2023-05-13T06:09:41.164Z,13.58
2023-05-13T06:14:42.657Z,13.65
2023-05-13T06:19:44.153Z,13.75
2023-05-13T06:24:45.661Z,13.81
2023-05-13T06:29:47.211Z,13.92
2023-05-13T06:34:49.569Z,14.05
2023-05-13T06:39:51.449Z,14.19
2023-05-13T06:44:53.042Z,14.34
2023-05-13T06:49:54.630Z,14.47
2023-05-13T06:54:56.273Z,14.63
2023-05-13T06:59:57.764Z,14.85
2023-05-13T07:04:59.268Z,15.01
2023-05-13T07:10:01.319Z,15.15
2023-05-13T07:15:02.945Z,15.29
2023-05-13T07:20:05.364Z,15.43
2023-05-13T07:25:07.902Z,15.59
2023-05-13T07:30:11.643Z,15.72
2023-05-13T07:35:13.399Z,15.85
2023-05-13T07:40:15.357Z,16.05
2023-05-13T07:45:16.882Z,16.28
2023-05-13T07:50:18.439Z,16.40
2023-05-13T07:55:20.576Z,16.46
2023-05-13T08:00:29.121Z,16.58
2023-05-13T08:05:31.019Z,16.69
2023-05-13T08:10:32.508Z,16.89
2023-05-13T08:15:34.171Z,17.17
2023-05-13T08:20:36.050Z,17.44
2023-05-13T08:25:37.717Z,17.59
2023-05-13T08:30:42.196Z,17.81
2023-05-13T08:35:44.895Z,18.07
2023-05-13T08:40:46.651Z,18.29
2023-05-13T08:45:50.685Z,18.49
2023-05-13T08:50:52.629Z,18.64
2023-05-13T08:55:55.061Z,18.78
2023-05-13T09:00:58.035Z,19.02
2023-05-13T09:06:03.435Z,19.09
2023-05-13T09:11:04.993Z,19.13
2023-05-13T09:16:07.212Z,19.38
2023-05-13T09:21:25.819Z,19.63
2023-05-13T09:26:29.192Z,19.89
2023-05-13T09:31:34.081Z,20.13
2023-05-13T09:36:35.986Z,20.34
2023-05-13T09:41:37.554Z,20.47
2023-05-13T09:46:39.240Z,20.35
2023-05-13T09:51:44.820Z,20.39
2023-05-13T09:56:46.873Z,20.45
2023-05-13T10:01:48.596Z,20.65
2023-05-13T10:06:50.742Z,20.93
2023-05-13T10:11:53.896Z,20.99
2023-05-13T10:16:57.711Z,20.88
2023-05-13T10:21:59.392Z,21.06
2023-05-13T10:27:03.123Z,21.15
2023-05-13T10:32:07.653Z,21.07
2023-05-13T10:37:48.104Z,20.81
2023-05-13T10:43:14.253Z,20.51
2023-05-13T10:48:17.260Z,20.35
2023-05-13T10:53:23.580Z,20.48
2023-05-13T10:58:33.950Z,20.71
2023-05-13T11:03:35.755Z,21.05
2023-05-13T11:08:42.817Z,21.09
2023-05-13T11:13:44.695Z,20.81
2023-05-13T11:18:47.050Z,20.83
2023-05-13T11:24:03.869Z,21.19
2023-05-13T11:29:06.572Z,21.55
2023-05-13T11:34:10.755Z,21.91
2023-05-13T11:39:14.893Z,22.07
2023-05-13T11:44:22.138Z,22.20
2023-05-13T11:49:40.728Z,22.37
2023-05-13T11:54:49.217Z,22.48
2023-05-13T12:00:05.013Z,22.45
2023-05-13T12:05:08.872Z,22.48
2023-05-13T12:10:10.955Z,22.50
2023-05-13T12:15:20.968Z,22.55
2023-05-13T12:20:24.614Z,22.86
2023-05-13T12:25:35.981Z,23.06
2023-05-13T12:30:46.605Z,23.00
2023-05-13T12:35:50.532Z,22.86
2023-05-13T12:40:53.210Z,22.56
2023-05-13T12:45:54.971Z,22.18
2023-05-13T12:50:56.662Z,21.90
2023-05-13T12:55:58.278Z,21.75
2023-05-13T13:01:07.635Z,21.93
2023-05-13T13:06:10.440Z,22.34
2023-05-13T13:11:18.305Z,22.80
2023-05-13T13:16:20.017Z,23.16
2023-05-13T13:21:21.528Z,23.49
2023-05-13T13:26:23.469Z,23.89
2023-05-13T13:31:25.049Z,24.26
2023-05-13T13:36:26.569Z,24.26
2023-05-13T13:41:28.046Z,24.28
2023-05-13T13:46:29.695Z,24.11
2023-05-13T13:51:32.031Z,24.28
2023-05-13T13:56:36.569Z,24.42
2023-05-13T14:01:40.316Z,24.45
2023-05-13T14:06:42.471Z,24.44
2023-05-13T14:11:43.991Z,24.65
2023-05-13T14:16:45.633Z,24.62
2023-05-13T14:21:47.197Z,24.71
2023-05-13T14:26:48.858Z,24.82
2023-05-13T14:31:50.470Z,24.71
2023-05-13T14:36:52.525Z,24.66
2023-05-13T14:41:54.085Z,24.69
2023-05-13T14:46:56.212Z,24.67
2023-05-13T14:51:57.961Z,24.69
2023-05-13T14:56:59.474Z,24.69
2023-05-13T15:02:02.576Z,24.71
2023-05-13T15:07:05.451Z,24.75
2023-05-13T15:12:07.986Z,24.74
2023-05-13T15:17:11.906Z,24.77
2023-05-13T15:22:13.706Z,24.65
2023-05-13T15:27:15.668Z,24.62
2023-05-13T15:32:17.128Z,24.65
2023-05-13T15:37:18.644Z,24.64
2023-05-13T15:42:20.553Z,24.60
2023-05-13T15:47:22.254Z,24.70
2023-05-13T15:52:23.989Z,24.71
2023-05-13T15:57:25.612Z,24.74
2023-05-13T16:02:29.695Z,24.77
2023-05-13T16:07:31.483Z,24.91
2023-05-13T16:12:33.239Z,24.89
2023-05-13T16:17:35.832Z,24.89
2023-05-13T16:22:38.302Z,24.97
2023-05-13T16:27:43.135Z,24.94
2023-05-13T16:32:47.722Z,24.89
2023-05-13T16:37:50.526Z,24.57
2023-05-13T16:42:52.609Z,24.55
2023-05-13T16:47:54.226Z,24.07
2023-05-13T16:52:56.988Z,22.65
2023-05-13T16:57:58.572Z,21.49
2023-05-13T17:03:01.391Z,20.72
2023-05-13T17:08:04.088Z,20.29
2023-05-13T17:13:05.703Z,19.95
2023-05-13T17:18:07.490Z,19.82
2023-05-13T17:23:13.873Z,19.61
2023-05-13T17:28:15.460Z,19.35
2023-05-13T17:33:17.021Z,19.24
2023-05-13T17:38:18.768Z,19.02
2023-05-13T17:43:20.287Z,18.62
2023-05-13T17:48:22.026Z,18.15
2023-05-13T17:53:23.771Z,17.92
2023-05-13T17:58:25.342Z,17.66
2023-05-13T18:03:26.909Z,17.34
2023-05-13T18:08:28.620Z,17.27
2023-05-13T18:13:30.256Z,17.15
2023-05-13T18:18:31.890Z,16.93
2023-05-13T18:23:33.428Z,16.70
2023-05-13T18:28:34.898Z,16.52
2023-05-13T18:33:36.374Z,16.30
2023-05-13T18:38:38.519Z,16.11
2023-05-13T18:43:39.999Z,15.96
2023-05-13T18:48:41.582Z,15.84
2023-05-13T18:53:43.087Z,15.71
2023-05-13T18:58:46.757Z,15.53
2023-05-13T19:03:48.441Z,15.37
2023-05-13T19:08:50.284Z,15.24
2023-05-13T19:13:51.938Z,15.12
2023-05-13T19:18:53.732Z,15.00
2023-05-13T19:23:55.236Z,14.84
2023-05-13T19:28:56.745Z,14.66
2023-05-13T19:33:58.311Z,14.44
2023-05-13T19:38:59.804Z,14.31
2023-05-13T19:44:01.572Z,14.24
2023-05-13T19:49:03.156Z,14.18
2023-05-13T19:54:06.785Z,14.09
2023-05-13T19:59:08.751Z,14.03
2023-05-13T20:04:10.417Z,13.98
2023-05-13T20:09:12.127Z,13.88
2023-05-13T20:14:13.650Z,13.77
2023-05-13T20:19:15.159Z,13.69
2023-05-13T20:24:16.836Z,13.59
2023-05-13T20:29:18.322Z,13.47
2023-05-13T20:34:19.998Z,13.38
2023-05-13T20:39:21.503Z,13.32
2023-05-13T20:44:23.754Z,13.28
2023-05-13T20:49:25.300Z,13.21
2023-05-13T20:54:26.795Z,13.15
2023-05-13T20:59:28.350Z,13.05
2023-05-13T21:04:29.970Z,12.86
2023-05-13T21:09:31.448Z,12.70
2023-05-13T21:14:32.981Z,12.52
2023-05-13T21:19:34.745Z,12.39
2023-05-13T21:24:36.307Z,12.26
2023-05-13T21:29:37.838Z,12.10
2023-05-13T21:34:39.466Z,11.97
2023-05-13T21:39:42.294Z,11.85
2023-05-13T21:44:43.785Z,11.76
2023-05-13T21:49:45.496Z,11.65
2023-05-13T21:54:46.984Z,11.53
2023-05-13T21:59:48.481Z,11.42
2023-05-13T22:04:49.979Z,11.34
2023-05-13T22:09:51.495Z,11.24
2023-05-13T22:14:53.358Z,11.15
2023-05-13T22:19:55.027Z,11.10
2023-05-13T22:24:59.918Z,11.00
2023-05-13T22:30:01.432Z,10.90
2023-05-13T22:35:03.122Z,10.79
2023-05-13T22:40:05.922Z,10.68
2023-05-13T22:45:08.319Z,10.58
2023-05-13T22:50:12.341Z,10.46
2023-05-13T22:55:14.241Z,10.35
2023-05-13T23:00:16.703Z,10.27
2023-05-13T23:05:18.673Z,10.18
2023-05-13T23:10:20.206Z,10.09
2023-05-13T23:15:21.787Z,10.00
2023-05-13T23:20:23.627Z,9.88
2023-05-13T23:25:25.667Z,9.84
2023-05-13T23:30:34.033Z,9.91
2023-05-13T23:35:35.622Z,9.94
2023-05-13T23:40:37.114Z,9.98
2023-05-13T23:45:38.677Z,10.02
2023-05-13T23:50:41.907Z,10.11
2023-05-13T23:55:43.368Z,10.21
